sensor_id;sensor_type;location;lat;lon;timestamp;P1;durP1;ratioP1;P2;durP2;ratioP2
32838;SDS011;19182;41.820;12.808;2023-03-13T00:01:37;38.17;;;15.10;;
32838;SDS011;19182;41.820;12.808;2023-03-13T00:04:08;36.83;;;13.75;;
32838;SDS011;19182;41.820;12.808;2023-03-13T00:06:35;30.80;;;13.43;;
32838;SDS011;19182;41.820;12.808;2023-03-13T00:09:05;38.05;;;14.15;;
32838;SDS011;19182;41.820;12.808;2023-03-13T00:11:34;28.75;;;12.90;;
32838;SDS011;19182;41.820;12.808;2023-03-13T00:14:02;30.25;;;14.43;;
32838;SDS011;19182;41.820;12.808;2023-03-13T00:16:30;28.33;;;12.73;;
32838;SDS011;19182;41.820;12.808;2023-03-13T00:19:01;28.10;;;12.32;;
32838;SDS011;19182;41.820;12.808;2023-03-13T00:21:29;26.42;;;11.68;;
32838;SDS011;19182;41.820;12.808;2023-03-13T00:23:57;26.50;;;11.23;;
32838;SDS011;19182;41.820;12.808;2023-03-13T00:26:25;25.58;;;10.43;;
32838;SDS011;19182;41.820;12.808;2023-03-13T00:28:54;22.88;;;10.57;;
32838;SDS011;19182;41.820;12.808;2023-03-13T00:31:21;26.50;;;9.02;;
32838;SDS011;19182;41.820;12.808;2023-03-13T00:33:49;22.15;;;8.85;;
32838;SDS011;19182;41.820;12.808;2023-03-13T00:38:48;18.15;;;8.18;;
32838;SDS011;19182;41.820;12.808;2023-03-13T00:41:17;24.30;;;9.43;;
32838;SDS011;19182;41.820;12.808;2023-03-13T00:43:45;23.55;;;9.20;;
32838;SDS011;19182;41.820;12.808;2023-03-13T00:46:11;24.02;;;9.18;;
32838;SDS011;19182;41.820;12.808;2023-03-13T00:48:38;18.40;;;8.85;;
32838;SDS011;19182;41.820;12.808;2023-03-13T00:51:05;21.52;;;9.75;;
32838;SDS011;19182;41.820;12.808;2023-03-13T00:53:31;19.70;;;8.75;;
32838;SDS011;19182;41.820;12.808;2023-03-13T00:56:00;25.15;;;9.85;;
32838;SDS011;19182;41.820;12.808;2023-03-13T00:58:29;25.67;;;9.73;;
32838;SDS011;19182;41.820;12.808;2023-03-13T01:00:56;25.10;;;9.40;;
32838;SDS011;19182;41.820;12.808;2023-03-13T01:03:29;28.00;;;10.15;;
32838;SDS011;19182;41.820;12.808;2023-03-13T01:05:58;24.35;;;10.38;;
32838;SDS011;19182;41.820;12.808;2023-03-13T01:08:26;25.23;;;9.80;;
32838;SDS011;19182;41.820;12.808;2023-03-13T01:11:05;43.40;;;13.85;;
32838;SDS011;19182;41.820;12.808;2023-03-13T01:13:38;24.48;;;10.00;;
32838;SDS011;19182;41.820;12.808;2023-03-13T01:16:05;24.83;;;11.07;;
32838;SDS011;19182;41.820;12.808;2023-03-13T01:18:34;22.90;;;10.68;;
32838;SDS011;19182;41.820;12.808;2023-03-13T01:21:01;21.23;;;11.02;;
32838;SDS011;19182;41.820;12.808;2023-03-13T01:23:28;24.33;;;11.00;;
32838;SDS011;19182;41.820;12.808;2023-03-13T01:25:55;35.72;;;12.05;;
32838;SDS011;19182;41.820;12.808;2023-03-13T01:28:21;27.00;;;11.32;;
32838;SDS011;19182;41.820;12.808;2023-03-13T01:30:49;24.90;;;11.43;;
32838;SDS011;19182;41.820;12.808;2023-03-13T01:33:16;22.38;;;10.77;;
32838;SDS011;19182;41.820;12.808;2023-03-13T01:35:42;23.25;;;10.23;;
32838;SDS011;19182;41.820;12.808;2023-03-13T01:38:11;30.30;;;11.25;;
32838;SDS011;19182;41.820;12.808;2023-03-13T01:40:48;22.05;;;9.95;;
32838;SDS011;19182;41.820;12.808;2023-03-13T01:43:18;22.05;;;10.27;;
32838;SDS011;19182;41.820;12.808;2023-03-13T01:54:09;17.00;;;9.32;;
32838;SDS011;19182;41.820;12.808;2023-03-13T01:59:14;27.70;;;9.93;;
32838;SDS011;19182;41.820;12.808;2023-03-13T02:01:44;22.60;;;9.48;;
32838;SDS011;19182;41.820;12.808;2023-03-13T02:04:13;20.70;;;9.65;;
32838;SDS011;19182;41.820;12.808;2023-03-13T02:06:43;22.02;;;8.00;;
32838;SDS011;19182;41.820;12.808;2023-03-13T02:09:13;20.52;;;8.25;;
32838;SDS011;19182;41.820;12.808;2023-03-13T02:11:44;14.30;;;7.03;;
32838;SDS011;19182;41.820;12.808;2023-03-13T02:14:23;24.05;;;7.00;;
32838;SDS011;19182;41.820;12.808;2023-03-13T02:16:52;15.70;;;7.30;;
32838;SDS011;19182;41.820;12.808;2023-03-13T02:19:26;16.73;;;6.32;;
32838;SDS011;19182;41.820;12.808;2023-03-13T02:22:02;15.80;;;6.13;;
32838;SDS011;19182;41.820;12.808;2023-03-13T02:24:36;11.90;;;5.22;;
32838;SDS011;19182;41.820;12.808;2023-03-13T02:27:22;14.13;;;5.63;;
32838;SDS011;19182;41.820;12.808;2023-03-13T02:29:48;14.70;;;4.75;;
32838;SDS011;19182;41.820;12.808;2023-03-13T02:32:16;19.35;;;5.70;;
32838;SDS011;19182;41.820;12.808;2023-03-13T02:34:43;16.27;;;5.88;;
32838;SDS011;19182;41.820;12.808;2023-03-13T02:37:11;17.25;;;6.15;;
32838;SDS011;19182;41.820;12.808;2023-03-13T02:39:40;14.48;;;5.85;;
32838;SDS011;19182;41.820;12.808;2023-03-13T02:42:10;13.13;;;5.15;;
32838;SDS011;19182;41.820;12.808;2023-03-13T02:44:40;13.82;;;6.05;;
32838;SDS011;19182;41.820;12.808;2023-03-13T02:47:08;12.50;;;5.72;;
32838;SDS011;19182;41.820;12.808;2023-03-13T02:49:41;14.20;;;5.40;;
32838;SDS011;19182;41.820;12.808;2023-03-13T02:52:12;14.55;;;5.32;;
32838;SDS011;19182;41.820;12.808;2023-03-13T02:54:49;12.20;;;6.22;;
32838;SDS011;19182;41.820;12.808;2023-03-13T02:57:18;23.45;;;8.68;;
32838;SDS011;19182;41.820;12.808;2023-03-13T02:59:44;19.58;;;9.52;;
32838;SDS011;19182;41.820;12.808;2023-03-13T03:02:10;22.45;;;9.02;;
32838;SDS011;19182;41.820;12.808;2023-03-13T03:04:36;25.98;;;10.00;;
32838;SDS011;19182;41.820;12.808;2023-03-13T03:07:02;25.42;;;9.40;;
32838;SDS011;19182;41.820;12.808;2023-03-13T03:09:28;27.35;;;10.35;;
32838;SDS011;19182;41.820;12.808;2023-03-13T03:11:54;26.30;;;10.43;;
32838;SDS011;19182;41.820;12.808;2023-03-13T03:14:20;26.83;;;10.90;;
32838;SDS011;19182;41.820;12.808;2023-03-13T03:16:46;21.23;;;10.27;;
32838;SDS011;19182;41.820;12.808;2023-03-13T03:19:12;28.27;;;11.25;;
32838;SDS011;19182;41.820;12.808;2023-03-13T03:21:38;27.85;;;12.60;;
32838;SDS011;19182;41.820;12.808;2023-03-13T03:24:04;26.08;;;11.52;;
32838;SDS011;19182;41.820;12.808;2023-03-13T03:26:31;29.50;;;11.90;;
32838;SDS011;19182;41.820;12.808;2023-03-13T03:28:56;32.58;;;12.18;;
32838;SDS011;19182;41.820;12.808;2023-03-13T03:31:25;28.95;;;11.68;;
32838;SDS011;19182;41.820;12.808;2023-03-13T03:33:51;23.05;;;11.25;;
32838;SDS011;19182;41.820;12.808;2023-03-13T03:36:18;19.45;;;10.63;;
32838;SDS011;19182;41.820;12.808;2023-03-13T03:38:46;27.77;;;10.70;;
32838;SDS011;19182;41.820;12.808;2023-03-13T03:41:12;24.15;;;10.63;;
32838;SDS011;19182;41.820;12.808;2023-03-13T03:43:39;28.35;;;10.02;;
32838;SDS011;19182;41.820;12.808;2023-03-13T03:46:05;17.98;;;9.75;;
32838;SDS011;19182;41.820;12.808;2023-03-13T03:48:31;23.45;;;10.50;;
32838;SDS011;19182;41.820;12.808;2023-03-13T03:50:57;26.27;;;9.60;;
32838;SDS011;19182;41.820;12.808;2023-03-13T03:53:24;26.95;;;10.38;;
32838;SDS011;19182;41.820;12.808;2023-03-13T03:55:50;22.05;;;9.45;;
32838;SDS011;19182;41.820;12.808;2023-03-13T03:58:16;21.05;;;9.63;;
32838;SDS011;19182;41.820;12.808;2023-03-13T04:00:43;22.10;;;9.25;;
32838;SDS011;19182;41.820;12.808;2023-03-13T04:03:14;25.73;;;10.02;;
32838;SDS011;19182;41.820;12.808;2023-03-13T04:05:41;25.00;;;9.57;;
32838;SDS011;19182;41.820;12.808;2023-03-13T04:08:08;24.77;;;10.43;;
32838;SDS011;19182;41.820;12.808;2023-03-13T04:10:35;21.23;;;10.10;;
32838;SDS011;19182;41.820;12.808;2023-03-13T04:13:01;25.88;;;10.35;;
32838;SDS011;19182;41.820;12.808;2023-03-13T04:15:27;28.17;;;10.63;;
32838;SDS011;19182;41.820;12.808;2023-03-13T04:17:53;25.27;;;11.23;;
32838;SDS011;19182;41.820;12.808;2023-03-13T04:20:19;25.48;;;10.80;;
32838;SDS011;19182;41.820;12.808;2023-03-13T04:22:44;30.20;;;10.27;;
32838;SDS011;19182;41.820;12.808;2023-03-13T04:25:10;26.65;;;10.30;;
32838;SDS011;19182;41.820;12.808;2023-03-13T04:27:36;28.08;;;11.23;;
32838;SDS011;19182;41.820;12.808;2023-03-13T04:30:03;25.88;;;11.07;;
32838;SDS011;19182;41.820;12.808;2023-03-13T04:32:33;30.50;;;12.18;;
32838;SDS011;19182;41.820;12.808;2023-03-13T04:34:59;28.63;;;11.75;;
32838;SDS011;19182;41.820;12.808;2023-03-13T04:37:25;25.13;;;10.95;;
32838;SDS011;19182;41.820;12.808;2023-03-13T04:39:51;30.48;;;10.93;;
32838;SDS011;19182;41.820;12.808;2023-03-13T04:42:16;20.42;;;10.82;;
32838;SDS011;19182;41.820;12.808;2023-03-13T04:44:42;28.90;;;11.32;;
32838;SDS011;19182;41.820;12.808;2023-03-13T04:47:08;28.15;;;10.30;;
32838;SDS011;19182;41.820;12.808;2023-03-13T04:49:34;24.25;;;10.55;;
32838;SDS011;19182;41.820;12.808;2023-03-13T04:52:04;22.58;;;9.60;;
32838;SDS011;19182;41.820;12.808;2023-03-13T04:54:31;24.70;;;10.65;;
32838;SDS011;19182;41.820;12.808;2023-03-13T04:56:59;21.30;;;10.90;;
32838;SDS011;19182;41.820;12.808;2023-03-13T04:59:25;21.75;;;11.82;;
32838;SDS011;19182;41.820;12.808;2023-03-13T05:01:51;26.80;;;11.70;;
32838;SDS011;19182;41.820;12.808;2023-03-13T05:04:20;26.60;;;10.63;;
32838;SDS011;19182;41.820;12.808;2023-03-13T05:06:48;32.25;;;11.88;;
32838;SDS011;19182;41.820;12.808;2023-03-13T05:09:14;21.83;;;11.57;;
32838;SDS011;19182;41.820;12.808;2023-03-13T05:11:40;28.30;;;11.38;;
32838;SDS011;19182;41.820;12.808;2023-03-13T05:14:06;27.08;;;11.20;;
32838;SDS011;19182;41.820;12.808;2023-03-13T05:16:34;33.55;;;12.18;;
32838;SDS011;19182;41.820;12.808;2023-03-13T05:19:01;28.27;;;10.55;;
32838;SDS011;19182;41.820;12.808;2023-03-13T05:21:27;22.67;;;11.32;;
32838;SDS011;19182;41.820;12.808;2023-03-13T05:23:53;25.08;;;10.90;;
32838;SDS011;19182;41.820;12.808;2023-03-13T05:26:19;24.02;;;11.57;;
32838;SDS011;19182;41.820;12.808;2023-03-13T05:28:51;27.42;;;11.32;;
32838;SDS011;19182;41.820;12.808;2023-03-13T05:31:16;19.85;;;10.25;;
32838;SDS011;19182;41.820;12.808;2023-03-13T05:33:42;28.52;;;10.55;;
32838;SDS011;19182;41.820;12.808;2023-03-13T05:36:08;18.95;;;10.15;;
32838;SDS011;19182;41.820;12.808;2023-03-13T05:38:34;26.27;;;10.40;;
32838;SDS011;19182;41.820;12.808;2023-03-13T05:40:59;21.90;;;10.13;;
32838;SDS011;19182;41.820;12.808;2023-03-13T05:43:25;19.30;;;9.52;;
32838;SDS011;19182;41.820;12.808;2023-03-13T05:45:51;23.30;;;10.07;;
32838;SDS011;19182;41.820;12.808;2023-03-13T05:48:18;25.73;;;9.98;;
32838;SDS011;19182;41.820;12.808;2023-03-13T05:50:45;22.55;;;9.77;;
32838;SDS011;19182;41.820;12.808;2023-03-13T05:53:12;36.60;;;10.98;;
32838;SDS011;19182;41.820;12.808;2023-03-13T05:55:38;23.17;;;10.18;;
32838;SDS011;19182;41.820;12.808;2023-03-13T05:58:05;21.08;;;9.63;;
32838;SDS011;19182;41.820;12.808;2023-03-13T06:00:31;23.30;;;9.10;;
32838;SDS011;19182;41.820;12.808;2023-03-13T06:02:57;21.38;;;8.98;;
32838;SDS011;19182;41.820;12.808;2023-03-13T06:05:23;17.83;;;8.85;;
32838;SDS011;19182;41.820;12.808;2023-03-13T06:07:49;23.20;;;8.90;;
32838;SDS011;19182;41.820;12.808;2023-03-13T06:10:15;16.33;;;8.77;;
32838;SDS011;19182;41.820;12.808;2023-03-13T06:12:41;16.13;;;8.32;;
32838;SDS011;19182;41.820;12.808;2023-03-13T06:15:07;19.08;;;9.35;;
32838;SDS011;19182;41.820;12.808;2023-03-13T06:17:34;25.63;;;11.10;;
32838;SDS011;19182;41.820;12.808;2023-03-13T06:20:01;16.63;;;9.30;;
32838;SDS011;19182;41.820;12.808;2023-03-13T06:22:29;22.90;;;10.85;;
32838;SDS011;19182;41.820;12.808;2023-03-13T06:25:01;22.52;;;9.30;;
32838;SDS011;19182;41.820;12.808;2023-03-13T06:27:27;18.45;;;11.10;;
32838;SDS011;19182;41.820;12.808;2023-03-13T06:29:52;23.13;;;10.50;;
32838;SDS011;19182;41.820;12.808;2023-03-13T06:32:19;16.88;;;9.60;;
32838;SDS011;19182;41.820;12.808;2023-03-13T06:34:44;23.25;;;11.07;;
32838;SDS011;19182;41.820;12.808;2023-03-13T06:37:10;26.17;;;12.65;;
32838;SDS011;19182;41.820;12.808;2023-03-13T06:39:36;25.67;;;11.95;;
32838;SDS011;19182;41.820;12.808;2023-03-13T06:42:03;22.92;;;10.90;;
32838;SDS011;19182;41.820;12.808;2023-03-13T06:44:29;21.15;;;10.02;;
32838;SDS011;19182;41.820;12.808;2023-03-13T06:46:55;17.92;;;9.68;;
32838;SDS011;19182;41.820;12.808;2023-03-13T06:49:21;18.00;;;8.35;;
32838;SDS011;19182;41.820;12.808;2023-03-13T06:51:47;17.92;;;7.88;;
32838;SDS011;19182;41.820;12.808;2023-03-13T06:54:13;17.42;;;7.40;;
32838;SDS011;19182;41.820;12.808;2023-03-13T06:56:40;16.80;;;6.57;;
32838;SDS011;19182;41.820;12.808;2023-03-13T06:59:11;13.60;;;6.75;;
32838;SDS011;19182;41.820;12.808;2023-03-13T07:01:36;20.45;;;6.72;;
32838;SDS011;19182;41.820;12.808;2023-03-13T07:04:02;13.75;;;7.20;;
32838;SDS011;19182;41.820;12.808;2023-03-13T07:06:28;18.98;;;7.30;;
32838;SDS011;19182;41.820;12.808;2023-03-13T07:08:54;14.23;;;6.70;;
32838;SDS011;19182;41.820;12.808;2023-03-13T07:11:20;15.90;;;6.07;;
32838;SDS011;19182;41.820;12.808;2023-03-13T07:13:45;16.48;;;6.57;;
32838;SDS011;19182;41.820;12.808;2023-03-13T07:16:12;11.70;;;5.78;;
32838;SDS011;19182;41.820;12.808;2023-03-13T07:18:39;13.77;;;6.45;;
32838;SDS011;19182;41.820;12.808;2023-03-13T07:21:06;10.85;;;5.22;;
32838;SDS011;19182;41.820;12.808;2023-03-13T07:23:33;15.38;;;5.93;;
32838;SDS011;19182;41.820;12.808;2023-03-13T07:26:00;12.27;;;4.97;;
32838;SDS011;19182;41.820;12.808;2023-03-13T07:28:32;12.15;;;5.00;;
32838;SDS011;19182;41.820;12.808;2023-03-13T07:31:02;11.50;;;5.40;;
32838;SDS011;19182;41.820;12.808;2023-03-13T07:33:39;9.52;;;4.80;;
32838;SDS011;19182;41.820;12.808;2023-03-13T07:36:05;12.15;;;4.93;;
32838;SDS011;19182;41.820;12.808;2023-03-13T07:38:34;13.18;;;5.40;;
32838;SDS011;19182;41.820;12.808;2023-03-13T07:41:00;12.30;;;4.95;;
32838;SDS011;19182;41.820;12.808;2023-03-13T07:43:26;14.80;;;5.32;;
32838;SDS011;19182;41.820;12.808;2023-03-13T07:45:59;15.18;;;6.20;;
32838;SDS011;19182;41.820;12.808;2023-03-13T07:48:45;13.00;;;4.97;;
32838;SDS011;19182;41.820;12.808;2023-03-13T07:51:16;10.70;;;5.15;;
32838;SDS011;19182;41.820;12.808;2023-03-13T07:53:48;11.60;;;4.82;;
32838;SDS011;19182;41.820;12.808;2023-03-13T07:56:16;9.88;;;4.88;;
32838;SDS011;19182;41.820;12.808;2023-03-13T07:58:44;10.90;;;5.15;;
32838;SDS011;19182;41.820;12.808;2023-03-13T08:01:43;10.60;;;5.43;;
32838;SDS011;19182;41.820;12.808;2023-03-13T08:04:11;13.57;;;5.10;;
32838;SDS011;19182;41.820;12.808;2023-03-13T08:06:44;13.77;;;5.85;;
32838;SDS011;19182;41.820;12.808;2023-03-13T08:09:10;13.35;;;5.75;;
32838;SDS011;19182;41.820;12.808;2023-03-13T08:11:37;13.50;;;5.93;;
32838;SDS011;19182;41.820;12.808;2023-03-13T08:14:08;10.75;;;6.38;;
32838;SDS011;19182;41.820;12.808;2023-03-13T08:16:34;14.30;;;6.65;;
32838;SDS011;19182;41.820;12.808;2023-03-13T08:19:00;15.30;;;6.97;;
32838;SDS011;19182;41.820;12.808;2023-03-13T08:21:30;14.00;;;6.72;;
32838;SDS011;19182;41.820;12.808;2023-03-13T08:23:58;12.68;;;5.95;;
32838;SDS011;19182;41.820;12.808;2023-03-13T08:26:28;11.98;;;5.15;;
32838;SDS011;19182;41.820;12.808;2023-03-13T08:28:55;12.88;;;4.90;;
32838;SDS011;19182;41.820;12.808;2023-03-13T08:32:05;13.07;;;5.32;;
32838;SDS011;19182;41.820;12.808;2023-03-13T08:34:13;9.90;;;4.53;;
32838;SDS011;19182;41.820;12.808;2023-03-13T08:36:41;11.90;;;5.10;;
32838;SDS011;19182;41.820;12.808;2023-03-13T08:39:11;10.95;;;4.80;;
32838;SDS011;19182;41.820;12.808;2023-03-13T08:41:39;8.30;;;4.00;;
32838;SDS011;19182;41.820;12.808;2023-03-13T08:44:05;10.25;;;4.13;;
32838;SDS011;19182;41.820;12.808;2023-03-13T08:46:33;9.13;;;4.00;;
32838;SDS011;19182;41.820;12.808;2023-03-13T08:49:00;7.43;;;4.25;;
32838;SDS011;19182;41.820;12.808;2023-03-13T08:51:27;8.75;;;4.28;;
32838;SDS011;19182;41.820;12.808;2023-03-13T08:53:53;9.48;;;3.92;;
32838;SDS011;19182;41.820;12.808;2023-03-13T08:56:21;10.32;;;3.80;;
32838;SDS011;19182;41.820;12.808;2023-03-13T08:59:01;8.27;;;4.35;;
32838;SDS011;19182;41.820;12.808;2023-03-13T09:01:29;10.93;;;3.38;;
32838;SDS011;19182;41.820;12.808;2023-03-13T09:03:57;7.55;;;2.90;;
32838;SDS011;19182;41.820;12.808;2023-03-13T09:06:24;5.53;;;3.15;;
32838;SDS011;19182;41.820;12.808;2023-03-13T09:08:50;12.90;;;4.88;;
32838;SDS011;19182;41.820;12.808;2023-03-13T09:11:17;9.55;;;4.13;;
32838;SDS011;19182;41.820;12.808;2023-03-13T09:13:46;9.95;;;4.35;;
32838;SDS011;19182;41.820;12.808;2023-03-13T09:16:21;7.88;;;4.10;;
32838;SDS011;19182;41.820;12.808;2023-03-13T09:18:48;9.05;;;3.80;;
32838;SDS011;19182;41.820;12.808;2023-03-13T09:21:24;10.05;;;3.60;;
32838;SDS011;19182;41.820;12.808;2023-03-13T09:23:53;13.93;;;4.00;;
32838;SDS011;19182;41.820;12.808;2023-03-13T09:26:18;9.15;;;3.60;;
32838;SDS011;19182;41.820;12.808;2023-03-13T09:28:56;9.40;;;4.43;;
32838;SDS011;19182;41.820;12.808;2023-03-13T09:31:23;6.53;;;4.15;;
32838;SDS011;19182;41.820;12.808;2023-03-13T09:33:53;11.57;;;4.60;;
32838;SDS011;19182;41.820;12.808;2023-03-13T09:36:20;8.13;;;3.22;;
32838;SDS011;19182;41.820;12.808;2023-03-13T09:38:47;7.50;;;3.63;;
32838;SDS011;19182;41.820;12.808;2023-03-13T09:44:00;6.53;;;3.42;;
32838;SDS011;19182;41.820;12.808;2023-03-13T09:49:14;8.80;;;3.40;;
32838;SDS011;19182;41.820;12.808;2023-03-13T09:52:27;8.98;;;3.42;;
32838;SDS011;19182;41.820;12.808;2023-03-13T09:55:10;10.13;;;3.97;;
32838;SDS011;19182;41.820;12.808;2023-03-13T09:57:43;8.32;;;3.65;;
32838;SDS011;19182;41.820;12.808;2023-03-13T10:00:25;9.25;;;4.05;;
32838;SDS011;19182;41.820;12.808;2023-03-13T10:02:59;9.77;;;3.67;;
32838;SDS011;19182;41.820;12.808;2023-03-13T10:05:30;10.48;;;3.47;;
32838;SDS011;19182;41.820;12.808;2023-03-13T10:08:07;9.45;;;4.20;;
32838;SDS011;19182;41.820;12.808;2023-03-13T10:10:42;28.92;;;12.65;;
32838;SDS011;19182;41.820;12.808;2023-03-13T10:16:18;8.57;;;3.17;;
32838;SDS011;19182;41.820;12.808;2023-03-13T10:19:12;6.90;;;3.75;;
32838;SDS011;19182;41.820;12.808;2023-03-13T10:21:52;7.60;;;3.47;;
32838;SDS011;19182;41.820;12.808;2023-03-13T10:25:03;6.82;;;3.72;;
32838;SDS011;19182;41.820;12.808;2023-03-13T10:27:18;9.48;;;4.85;;
32838;SDS011;19182;41.820;12.808;2023-03-13T10:29:44;11.95;;;4.97;;
32838;SDS011;19182;41.820;12.808;2023-03-13T10:32:13;11.85;;;5.13;;
32838;SDS011;19182;41.820;12.808;2023-03-13T10:34:56;13.05;;;5.00;;
32838;SDS011;19182;41.820;12.808;2023-03-13T10:37:31;12.00;;;4.55;;
32838;SDS011;19182;41.820;12.808;2023-03-13T10:40:23;14.73;;;5.53;;
32838;SDS011;19182;41.820;12.808;2023-03-13T10:43:01;13.18;;;5.18;;
32838;SDS011;19182;41.820;12.808;2023-03-13T10:45:36;10.75;;;4.85;;
32838;SDS011;19182;41.820;12.808;2023-03-13T10:48:03;11.25;;;5.68;;
32838;SDS011;19182;41.820;12.808;2023-03-13T10:50:35;12.10;;;5.15;;
32838;SDS011;19182;41.820;12.808;2023-03-13T10:53:18;16.80;;;5.03;;
32838;SDS011;19182;41.820;12.808;2023-03-13T10:55:57;12.07;;;5.63;;
32838;SDS011;19182;41.820;12.808;2023-03-13T10:58:42;15.05;;;5.30;;
32838;SDS011;19182;41.820;12.808;2023-03-13T11:01:23;14.38;;;5.38;;
32838;SDS011;19182;41.820;12.808;2023-03-13T11:04:19;11.98;;;4.85;;
32838;SDS011;19182;41.820;12.808;2023-03-13T11:06:54;14.00;;;5.10;;
32838;SDS011;19182;41.820;12.808;2023-03-13T11:09:27;14.88;;;5.60;;
32838;SDS011;19182;41.820;12.808;2023-03-13T11:11:53;16.17;;;5.50;;
32838;SDS011;19182;41.820;12.808;2023-03-13T11:14:25;11.50;;;4.97;;
32838;SDS011;19182;41.820;12.808;2023-03-13T11:19:57;13.48;;;5.80;;
32838;SDS011;19182;41.820;12.808;2023-03-13T11:25:27;12.88;;;5.32;;
32838;SDS011;19182;41.820;12.808;2023-03-13T11:31:01;9.52;;;4.60;;
32838;SDS011;19182;41.820;12.808;2023-03-13T11:33:56;13.50;;;5.68;;
32838;SDS011;19182;41.820;12.808;2023-03-13T11:41:58;13.38;;;5.25;;
32838;SDS011;19182;41.820;12.808;2023-03-13T11:44:49;12.75;;;4.75;;
32838;SDS011;19182;41.820;12.808;2023-03-13T11:47:44;11.98;;;4.70;;
32838;SDS011;19182;41.820;12.808;2023-03-13T11:58:54;9.57;;;3.15;;
32838;SDS011;19182;41.820;12.808;2023-03-13T12:01:56;9.70;;;3.75;;
32838;SDS011;19182;41.820;12.808;2023-03-13T12:05:07;10.55;;;3.47;;
32838;SDS011;19182;41.820;12.808;2023-03-13T12:08:01;10.20;;;3.58;;
32838;SDS011;19182;41.820;12.808;2023-03-13T12:10:36;9.88;;;3.42;;
32838;SDS011;19182;41.820;12.808;2023-03-13T12:13:31;8.07;;;3.63;;
32838;SDS011;19182;41.820;12.808;2023-03-13T12:16:23;9.88;;;3.67;;
32838;SDS011;19182;41.820;12.808;2023-03-13T12:18:59;9.50;;;3.15;;
32838;SDS011;19182;41.820;12.808;2023-03-13T12:21:29;11.82;;;3.65;;
32838;SDS011;19182;41.820;12.808;2023-03-13T12:32:15;11.98;;;3.70;;
32838;SDS011;19182;41.820;12.808;2023-03-13T12:48:40;12.20;;;4.13;;
32838;SDS011;19182;41.820;12.808;2023-03-13T12:57:47;11.07;;;3.83;;
32838;SDS011;19182;41.820;12.808;2023-03-13T13:00:31;11.70;;;4.13;;
32838;SDS011;19182;41.820;12.808;2023-03-13T13:05:34;11.13;;;3.83;;
32838;SDS011;19182;41.820;12.808;2023-03-13T13:08:00;14.90;;;4.43;;
32838;SDS011;19182;41.820;12.808;2023-03-13T13:10:26;10.27;;;4.05;;
32838;SDS011;19182;41.820;12.808;2023-03-13T13:15:57;11.27;;;3.70;;
32838;SDS011;19182;41.820;12.808;2023-03-13T13:21:23;7.22;;;2.83;;
32838;SDS011;19182;41.820;12.808;2023-03-13T13:23:53;11.45;;;3.90;;
32838;SDS011;19182;41.820;12.808;2023-03-13T13:26:57;9.68;;;3.60;;
32838;SDS011;19182;41.820;12.808;2023-03-13T13:39:40;13.90;;;3.42;;
32838;SDS011;19182;41.820;12.808;2023-03-13T13:56:32;13.33;;;4.10;;
32838;SDS011;19182;41.820;12.808;2023-03-13T14:01:46;21.23;;;4.45;;
32838;SDS011;19182;41.820;12.808;2023-03-13T14:06:58;10.98;;;4.72;;
32838;SDS011;19182;41.820;12.808;2023-03-13T14:11:57;15.80;;;4.13;;
32838;SDS011;19182;41.820;12.808;2023-03-13T14:14:23;11.98;;;4.07;;
32838;SDS011;19182;41.820;12.808;2023-03-13T14:16:50;12.98;;;4.05;;
32838;SDS011;19182;41.820;12.808;2023-03-13T14:22:16;14.35;;;4.22;;
32838;SDS011;19182;41.820;12.808;2023-03-13T14:24:47;17.08;;;4.13;;
32838;SDS011;19182;41.820;12.808;2023-03-13T14:27:21;8.43;;;3.47;;
32838;SDS011;19182;41.820;12.808;2023-03-13T14:29:59;14.82;;;4.00;;
32838;SDS011;19182;41.820;12.808;2023-03-13T14:32:30;14.55;;;4.03;;
32838;SDS011;19182;41.820;12.808;2023-03-13T14:34:55;21.33;;;4.38;;
32838;SDS011;19182;41.820;12.808;2023-03-13T14:40:06;15.75;;;4.28;;
32838;SDS011;19182;41.820;12.808;2023-03-13T14:42:38;12.18;;;3.78;;
32838;SDS011;19182;41.820;12.808;2023-03-13T14:45:19;14.27;;;4.35;;
32838;SDS011;19182;41.820;12.808;2023-03-13T14:47:49;11.85;;;4.45;;
32838;SDS011;19182;41.820;12.808;2023-03-13T14:50:17;11.15;;;4.18;;
32838;SDS011;19182;41.820;12.808;2023-03-13T14:52:44;10.40;;;3.78;;
32838;SDS011;19182;41.820;12.808;2023-03-13T14:58:05;14.65;;;4.18;;
32838;SDS011;19182;41.820;12.808;2023-03-13T15:00:47;21.27;;;4.68;;
32838;SDS011;19182;41.820;12.808;2023-03-13T15:05:44;19.25;;;4.38;;
32838;SDS011;19182;41.820;12.808;2023-03-13T15:10:41;9.32;;;3.28;;
32838;SDS011;19182;41.820;12.808;2023-03-13T15:15:56;10.53;;;3.37;;
32838;SDS011;19182;41.820;12.808;2023-03-13T15:18:26;9.02;;;3.20;;
32838;SDS011;19182;41.820;12.808;2023-03-13T15:20:54;11.52;;;3.33;;
32838;SDS011;19182;41.820;12.808;2023-03-13T15:23:21;8.77;;;3.25;;
32838;SDS011;19182;41.820;12.808;2023-03-13T15:25:49;10.50;;;3.45;;
32838;SDS011;19182;41.820;12.808;2023-03-13T15:28:21;10.02;;;3.00;;
32838;SDS011;19182;41.820;12.808;2023-03-13T15:31:03;12.10;;;3.42;;
32838;SDS011;19182;41.820;12.808;2023-03-13T15:33:29;9.30;;;2.70;;
32838;SDS011;19182;41.820;12.808;2023-03-13T15:35:55;12.32;;;3.22;;
32838;SDS011;19182;41.820;12.808;2023-03-13T15:38:22;11.93;;;3.63;;
32838;SDS011;19182;41.820;12.808;2023-03-13T15:40:50;12.77;;;4.07;;
32838;SDS011;19182;41.820;12.808;2023-03-13T15:43:16;8.57;;;3.05;;
32838;SDS011;19182;41.820;12.808;2023-03-13T15:45:43;14.18;;;4.10;;
32838;SDS011;19182;41.820;12.808;2023-03-13T15:50:44;10.80;;;3.78;;
32838;SDS011;19182;41.820;12.808;2023-03-13T15:55:42;12.88;;;3.35;;
32838;SDS011;19182;41.820;12.808;2023-03-13T15:58:08;18.38;;;4.28;;
32838;SDS011;19182;41.820;12.808;2023-03-13T16:00:38;8.98;;;3.40;;
32838;SDS011;19182;41.820;12.808;2023-03-13T16:03:04;14.77;;;3.63;;
32838;SDS011;19182;41.820;12.808;2023-03-13T16:05:30;8.98;;;3.10;;
32838;SDS011;19182;41.820;12.808;2023-03-13T16:07:56;9.30;;;2.97;;
32838;SDS011;19182;41.820;12.808;2023-03-13T16:10:26;7.57;;;2.65;;
32838;SDS011;19182;41.820;12.808;2023-03-13T16:12:53;9.57;;;2.75;;
32838;SDS011;19182;41.820;12.808;2023-03-13T16:15:20;8.82;;;2.70;;
32838;SDS011;19182;41.820;12.808;2023-03-13T16:17:46;14.38;;;4.90;;
32838;SDS011;19182;41.820;12.808;2023-03-13T16:20:16;9.05;;;4.15;;
32838;SDS011;19182;41.820;12.808;2023-03-13T16:22:58;9.85;;;3.45;;
32838;SDS011;19182;41.820;12.808;2023-03-13T16:25:28;14.52;;;4.68;;
32838;SDS011;19182;41.820;12.808;2023-03-13T16:27:55;12.02;;;4.38;;
32838;SDS011;19182;41.820;12.808;2023-03-13T16:30:23;19.98;;;5.40;;
32838;SDS011;19182;41.820;12.808;2023-03-13T16:32:51;16.08;;;4.88;;
32838;SDS011;19182;41.820;12.808;2023-03-13T16:35:17;12.95;;;5.43;;
32838;SDS011;19182;41.820;12.808;2023-03-13T16:37:42;11.38;;;4.78;;
32838;SDS011;19182;41.820;12.808;2023-03-13T16:40:15;12.57;;;4.68;;
32838;SDS011;19182;41.820;12.808;2023-03-13T16:42:42;12.13;;;4.80;;
32838;SDS011;19182;41.820;12.808;2023-03-13T16:45:09;12.82;;;3.92;;
32838;SDS011;19182;41.820;12.808;2023-03-13T16:47:35;13.48;;;4.72;;
32838;SDS011;19182;41.820;12.808;2023-03-13T16:50:02;13.23;;;4.28;;
32838;SDS011;19182;41.820;12.808;2023-03-13T16:52:54;14.23;;;4.63;;
32838;SDS011;19182;41.820;12.808;2023-03-13T16:55:21;10.80;;;4.32;;